createdAt,value
2018-03-04T00:01:02.827Z,-2.89
2018-03-04T00:02:07.797Z,-2.91
2018-03-04T00:03:12.588Z,-2.94
2018-03-04T00:04:18.241Z,-2.92
2018-03-04T00:05:23.178Z,-2.90
2018-03-04T00:06:27.996Z,-2.87
2018-03-04T00:07:32.750Z,-2.86
2018-03-04T00:08:37.499Z,-2.88
2018-03-04T00:09:42.604Z,-2.87
2018-03-04T00:10:47.653Z,-2.90
2018-03-04T00:11:52.661Z,-2.89
2018-03-04T00:12:57.406Z,-2.84
2018-03-04T00:14:03.157Z,-2.83
2018-03-04T00:15:08.103Z,-2.79
2018-03-04T00:16:13.450Z,-2.82
2018-03-04T00:17:18.825Z,-2.86
2018-03-04T00:18:24.182Z,-2.84
2018-03-04T00:19:28.929Z,-2.82
2018-03-04T00:20:33.772Z,-2.80
2018-03-04T00:21:39.644Z,-2.80
2018-03-04T00:22:44.661Z,-2.77
2018-03-04T00:23:50.154Z,-2.71
2018-03-04T00:24:55.033Z,-2.69
2018-03-04T00:25:59.667Z,-2.75
2018-03-04T00:27:04.414Z,-2.78
2018-03-04T00:28:09.417Z,-2.75
2018-03-04T00:29:14.612Z,-2.69
2018-03-04T00:30:19.676Z,-2.65
2018-03-04T00:31:24.676Z,-2.66
2018-03-04T00:32:29.695Z,-2.70
2018-03-04T00:33:34.563Z,-2.75
2018-03-04T00:34:40.311Z,-2.81
2018-03-04T00:35:45.469Z,-2.85
2018-03-04T00:36:50.716Z,-2.89
2018-03-04T00:37:55.604Z,-2.87
2018-03-04T00:39:00.621Z,-2.89
2018-03-04T00:40:08.025Z,-2.90
2018-03-04T00:41:12.937Z,-2.91
2018-03-04T00:42:18.453Z,-2.90
2018-03-04T00:43:23.389Z,-2.88
2018-03-04T00:44:28.321Z,-2.85
2018-03-04T00:45:33.785Z,-2.80
2018-03-04T00:46:39.475Z,-2.76
2018-03-04T00:47:44.267Z,-2.75
2018-03-04T00:48:49.777Z,-2.74
2018-03-04T00:49:54.891Z,-2.77
2018-03-04T00:50:59.770Z,-2.78
2018-03-04T00:52:04.820Z,-2.75
2018-03-04T00:53:09.623Z,-2.73
2018-03-04T00:54:14.464Z,-2.75
2018-03-04T00:55:19.443Z,-2.77
2018-03-04T00:56:25.125Z,-2.72
2018-03-04T00:57:29.953Z,-2.72
2018-03-04T00:58:34.841Z,-2.72
2018-03-04T00:59:40.121Z,-2.64
2018-03-04T01:00:45.206Z,-2.60
2018-03-04T01:01:50.734Z,-2.55
2018-03-04T01:02:55.636Z,-2.55
2018-03-04T01:04:00.592Z,-2.51
2018-03-04T01:05:05.612Z,-2.49
2018-03-04T01:06:11.628Z,-2.52
2018-03-04T01:07:16.612Z,-2.55
2018-03-04T01:08:21.904Z,-2.58
2018-03-04T01:09:27.108Z,-2.60
2018-03-04T01:10:32.353Z,-2.60
2018-03-04T01:11:38.471Z,-2.65
2018-03-04T01:12:43.574Z,-2.70
2018-03-04T01:13:48.837Z,-2.70
2018-03-04T01:14:53.770Z,-2.71
2018-03-04T01:15:59.121Z,-2.64
2018-03-04T01:17:04.208Z,-2.69
2018-03-04T01:18:09.462Z,-2.70
2018-03-04T01:19:14.561Z,-2.70
2018-03-04T01:20:20.247Z,-2.68
2018-03-04T01:21:25.544Z,-2.75
2018-03-04T01:22:30.534Z,-2.82
2018-03-04T01:23:35.531Z,-2.87
2018-03-04T01:24:41.427Z,-2.83
2018-03-04T01:25:46.550Z,-2.86
2018-03-04T01:26:51.845Z,-2.88
2018-03-04T01:27:57.202Z,-2.88
2018-03-04T01:29:02.364Z,-2.87
2018-03-04T01:30:08.194Z,-2.85
2018-03-04T01:31:13.830Z,-2.84
2018-03-04T01:32:18.870Z,-2.83
2018-03-04T01:33:24.046Z,-2.86
2018-03-04T01:34:29.348Z,-2.85
2018-03-04T01:35:35.093Z,-2.76
2018-03-04T01:36:41.242Z,-2.78
2018-03-04T01:37:46.389Z,-2.79
2018-03-04T01:38:52.579Z,-2.89
2018-03-04T01:39:57.722Z,-2.90
2018-03-04T01:41:03.205Z,-2.95
2018-03-04T01:42:08.814Z,-3.00
2018-03-04T01:43:14.227Z,-3.02
2018-03-04T01:44:19.361Z,-3.02
2018-03-04T01:45:24.904Z,-2.99
2018-03-04T01:46:30.998Z,-2.99
2018-03-04T01:47:37.415Z,-2.91
2018-03-04T01:48:42.452Z,-2.89
2018-03-04T01:49:47.766Z,-2.93
2018-03-04T01:50:53.008Z,-3.00
2018-03-04T01:51:58.171Z,-3.05
2018-03-04T01:53:03.252Z,-3.13
2018-03-04T01:54:09.539Z,-3.14
2018-03-04T01:55:14.752Z,-3.12
2018-03-04T01:56:20.000Z,-3.08
2018-03-04T01:57:25.470Z,-3.08
2018-03-04T01:58:30.742Z,-3.02
2018-03-04T01:59:36.114Z,-3.05
2018-03-04T02:00:42.696Z,-3.11
2018-03-04T02:01:47.803Z,-3.15
2018-03-04T02:02:52.925Z,-3.15
2018-03-04T02:03:58.101Z,-3.17
2018-03-04T02:05:03.329Z,-3.18
2018-03-04T02:06:08.690Z,-3.20
2018-03-04T02:07:14.361Z,-3.19
2018-03-04T02:08:19.507Z,-3.13
2018-03-04T02:09:24.826Z,-3.13
2018-03-04T02:10:29.766Z,-3.17
2018-03-04T02:11:34.860Z,-3.19
2018-03-04T02:12:40.681Z,-3.22
2018-03-04T02:13:46.047Z,-3.22
2018-03-04T02:14:51.340Z,-3.25
2018-03-04T02:15:56.721Z,-3.29
2018-03-04T02:17:01.831Z,-3.31
2018-03-04T02:18:08.005Z,-3.35
2018-03-04T02:19:13.067Z,-3.33
2018-03-04T02:20:18.725Z,-3.30
2018-03-04T02:21:23.810Z,-3.31
2018-03-04T02:22:28.984Z,-3.33
2018-03-04T02:23:34.267Z,-3.37
2018-03-04T02:24:40.293Z,-3.40
2018-03-04T02:25:45.680Z,-3.37
2018-03-04T02:26:51.195Z,-3.39
2018-03-04T02:27:56.361Z,-3.44
2018-03-04T02:29:01.623Z,-3.47
2018-03-04T02:30:09.329Z,-3.44
2018-03-04T02:31:14.834Z,-3.48
2018-03-04T02:32:20.397Z,-3.47
2018-03-04T02:33:25.582Z,-3.42
2018-03-04T02:34:31.016Z,-3.43
2018-03-04T02:35:36.198Z,-3.46
2018-03-04T02:36:41.509Z,-3.49
2018-03-04T02:37:46.668Z,-3.53
2018-03-04T02:38:52.005Z,-3.56
2018-03-04T02:39:57.007Z,-3.58
2018-03-04T02:41:01.963Z,-3.54
2018-03-04T02:42:07.098Z,-3.47
2018-03-04T02:43:12.377Z,-3.45
2018-03-04T02:44:17.318Z,-3.43
2018-03-04T02:45:23.290Z,-3.42
2018-03-04T02:46:28.554Z,-3.37
2018-03-04T02:47:33.791Z,-3.33
2018-03-04T02:48:39.877Z,-3.36
2018-03-04T02:49:45.186Z,-3.34
2018-03-04T02:50:51.117Z,-3.37
2018-03-04T02:51:56.379Z,-3.44
2018-03-04T02:53:01.851Z,-3.48
2018-03-04T02:54:08.096Z,-3.53
2018-03-04T02:55:13.315Z,-3.50
2018-03-04T02:56:18.645Z,-3.52
2018-03-04T02:57:24.186Z,-3.58
2018-03-04T02:58:29.149Z,-3.64
2018-03-04T02:59:34.253Z,-3.63
2018-03-04T03:00:40.475Z,-3.66
2018-03-04T03:01:46.120Z,-3.73
2018-03-04T03:02:51.029Z,-3.73
2018-03-04T03:03:56.580Z,-3.76
2018-03-04T03:05:01.915Z,-3.70
2018-03-04T03:06:08.028Z,-3.75
2018-03-04T03:07:13.196Z,-3.78
2018-03-04T03:08:18.383Z,-3.77
2018-03-04T03:09:23.334Z,-3.77
2018-03-04T03:10:28.539Z,-3.78
2018-03-04T03:11:33.560Z,-3.76
2018-03-04T03:12:38.893Z,-3.77
2018-03-04T03:13:43.802Z,-3.85
2018-03-04T03:14:49.185Z,-3.81
2018-03-04T03:15:54.980Z,-3.79
2018-03-04T03:17:00.774Z,-3.81
2018-03-04T03:18:06.706Z,-3.83
2018-03-04T03:19:11.999Z,-3.82
2018-03-04T03:20:17.256Z,-3.81
2018-03-04T03:21:22.455Z,-3.86
2018-03-04T03:22:27.905Z,-3.81
2018-03-04T03:23:32.718Z,-3.75
2018-03-04T03:24:40.429Z,-3.75
2018-03-04T03:25:45.732Z,-3.71
2018-03-04T03:26:50.537Z,-3.76
2018-03-04T03:27:55.503Z,-3.70
2018-03-04T03:29:01.390Z,-3.67
2018-03-04T03:30:09.018Z,-3.62
2018-03-04T03:31:14.129Z,-3.57
2018-03-04T03:32:19.207Z,-3.51
2018-03-04T03:33:23.958Z,-3.52
2018-03-04T03:34:29.228Z,-3.55
2018-03-04T03:35:34.273Z,-3.52
2018-03-04T03:36:39.432Z,-3.47
2018-03-04T03:37:44.500Z,-3.44
2018-03-04T03:38:49.686Z,-3.44
2018-03-04T03:39:54.182Z,-3.46
2018-03-04T03:40:59.046Z,-3.47
2018-03-04T03:42:04.059Z,-3.47
2018-03-04T03:43:09.471Z,-3.51
2018-03-04T03:44:14.193Z,-3.56
2018-03-04T03:45:19.233Z,-3.58
2018-03-04T03:46:24.213Z,-3.53
2018-03-04T03:47:29.070Z,-3.50
2018-03-04T03:48:33.875Z,-3.53
2018-03-04T03:49:39.378Z,-3.51
2018-03-04T03:50:44.192Z,-3.57
2018-03-04T03:51:48.962Z,-3.59
2018-03-04T03:52:54.232Z,-3.50
2018-03-04T03:53:59.228Z,-3.49
2018-03-04T03:55:03.937Z,-3.47
2018-03-04T03:56:09.693Z,-3.53
2018-03-04T03:57:14.523Z,-3.52
2018-03-04T03:58:19.263Z,-3.59
2018-03-04T03:59:24.359Z,-3.59
2018-03-04T04:00:29.578Z,-3.51
2018-03-04T04:01:34.374Z,-3.50
2018-03-04T04:02:39.010Z,-3.49
2018-03-04T04:03:43.949Z,-3.53
2018-03-04T04:04:48.958Z,-3.60
2018-03-04T04:05:53.778Z,-3.69
2018-03-04T04:06:58.963Z,-3.70
2018-03-04T04:08:03.482Z,-3.65
2018-03-04T04:09:09.190Z,-3.63
2018-03-04T04:10:14.239Z,-3.63
2018-03-04T04:11:19.252Z,-3.66
2018-03-04T04:12:24.060Z,-3.78
2018-03-04T04:13:28.821Z,-3.76
2018-03-04T04:14:33.627Z,-3.74
2018-03-04T04:15:38.410Z,-3.78
2018-03-04T04:16:43.892Z,-3.77
2018-03-04T04:17:48.287Z,-3.76
2018-03-04T04:18:53.111Z,-3.75
2018-03-04T04:19:57.508Z,-3.76
2018-03-04T04:21:02.393Z,-3.77
2018-03-04T04:22:06.867Z,-3.82
2018-03-04T04:23:11.364Z,-3.88
2018-03-04T04:24:16.146Z,-3.89
2018-03-04T04:25:21.004Z,-3.94
2018-03-04T04:26:25.858Z,-3.87
2018-03-04T04:27:30.499Z,-3.87
2018-03-04T04:28:35.092Z,-3.89
2018-03-04T04:29:40.384Z,-3.92
2018-03-04T04:30:45.040Z,-3.90
2018-03-04T04:31:49.629Z,-3.90
2018-03-04T04:32:54.197Z,-3.91
2018-03-04T04:33:58.657Z,-3.93
2018-03-04T04:35:03.041Z,-3.92
2018-03-04T04:36:07.613Z,-3.89
2018-03-04T04:37:12.429Z,-3.80
2018-03-04T04:38:16.823Z,-3.76
2018-03-04T04:39:21.550Z,-3.74
2018-03-04T04:40:26.165Z,-3.71
2018-03-04T04:41:30.540Z,-3.70
2018-03-04T04:42:34.903Z,-3.65
2018-03-04T04:43:39.899Z,-3.59
2018-03-04T04:44:44.336Z,-3.57
2018-03-04T04:45:49.061Z,-3.61
2018-03-04T04:46:53.448Z,-3.59
2018-03-04T04:47:58.241Z,-3.58
2018-03-04T04:49:02.902Z,-3.60
2018-03-04T04:50:07.877Z,-3.60
2018-03-04T04:51:12.352Z,-3.61
2018-03-04T04:52:16.936Z,-3.57
2018-03-04T04:53:21.854Z,-3.58
2018-03-04T04:54:26.501Z,-3.54
2018-03-04T04:55:32.414Z,-3.50
2018-03-04T04:56:38.208Z,-3.49
2018-03-04T04:57:43.530Z,-3.51
2018-03-04T04:58:48.176Z,-3.50
2018-03-04T04:59:53.215Z,-3.49
2018-03-04T05:00:58.362Z,-3.53
2018-03-04T05:02:02.903Z,-3.53
2018-03-04T05:03:08.878Z,-3.52
2018-03-04T05:04:13.371Z,-3.47
2018-03-04T05:05:17.814Z,-3.44
2018-03-04T05:06:22.210Z,-3.49
2018-03-04T05:07:27.233Z,-3.52
2018-03-04T05:08:32.264Z,-3.55
2018-03-04T05:09:36.982Z,-3.51
2018-03-04T05:10:42.842Z,-3.52
2018-03-04T05:11:47.416Z,-3.52
2018-03-04T05:12:51.931Z,-3.45
2018-03-04T05:13:56.335Z,-3.46
2018-03-04T05:15:01.254Z,-3.50
2018-03-04T05:16:07.293Z,-3.51
2018-03-04T05:17:12.171Z,-3.53
2018-03-04T05:18:16.972Z,-3.53
2018-03-04T05:19:21.335Z,-3.46
2018-03-04T05:20:25.876Z,-3.40
2018-03-04T05:21:30.704Z,-3.37
2018-03-04T05:22:35.042Z,-3.33
2018-03-04T05:23:39.442Z,-3.34
2018-03-04T05:24:44.970Z,-3.41
2018-03-04T05:25:49.470Z,-3.47
2018-03-04T05:26:54.017Z,-3.44
2018-03-04T05:27:58.502Z,-3.40
2018-03-04T05:29:03.094Z,-3.37
2018-03-04T05:30:07.931Z,-3.31
2018-03-04T05:31:12.640Z,-3.27
2018-03-04T05:32:17.166Z,-3.27
2018-03-04T05:33:21.567Z,-3.28
2018-03-04T05:34:26.498Z,-3.24
2018-03-04T05:35:30.818Z,-3.20
2018-03-04T05:36:35.391Z,-3.19
2018-03-04T05:37:40.224Z,-3.17
2018-03-04T05:38:45.879Z,-3.18
2018-03-04T05:39:50.874Z,-3.12
2018-03-04T05:40:55.769Z,-3.11
2018-03-04T05:42:01.081Z,-3.14
2018-03-04T05:43:06.255Z,-3.21
2018-03-04T05:44:11.678Z,-3.27
2018-03-04T05:45:17.137Z,-3.24
2018-03-04T05:46:22.030Z,-3.20
2018-03-04T05:47:26.896Z,-3.13
2018-03-04T05:48:31.529Z,-3.11
2018-03-04T05:49:36.206Z,-3.09
2018-03-04T05:50:41.586Z,-3.08
2018-03-04T05:51:46.100Z,-3.02
2018-03-04T05:52:51.004Z,-3.02
2018-03-04T05:53:55.800Z,-2.98
2018-03-04T05:55:01.060Z,-3.01
2018-03-04T05:56:06.953Z,-3.09
2018-03-04T05:57:11.675Z,-3.03
2018-03-04T05:58:16.645Z,-3.01
2018-03-04T05:59:21.629Z,-2.96
2018-03-04T06:00:28.123Z,-2.93
2018-03-04T06:01:32.907Z,-2.97
2018-03-04T06:02:38.173Z,-3.01
2018-03-04T06:03:44.206Z,-2.96
2018-03-04T06:04:49.895Z,-2.93
2018-03-04T06:05:56.265Z,-2.90
2018-03-04T06:07:00.855Z,-2.88
2018-03-04T06:08:05.504Z,-2.84
2018-03-04T06:09:10.314Z,-2.84
2018-03-04T06:10:15.313Z,-2.90
2018-03-04T06:11:20.306Z,-2.91
2018-03-04T06:12:26.874Z,-2.87
2018-03-04T06:13:31.863Z,-2.83
2018-03-04T06:14:36.893Z,-2.86
2018-03-04T06:15:43.179Z,-2.78
2018-03-04T06:16:48.237Z,-2.74
2018-03-04T06:17:53.129Z,-2.75
2018-03-04T06:18:58.375Z,-2.74
2018-03-04T06:20:03.646Z,-2.70
2018-03-04T06:21:09.336Z,-2.66
2018-03-04T06:22:14.597Z,-2.65
2018-03-04T06:23:19.286Z,-2.66
2018-03-04T06:24:25.156Z,-2.67
2018-03-04T06:25:30.081Z,-2.64
2018-03-04T06:26:35.052Z,-2.70
2018-03-04T06:27:40.174Z,-2.71
2018-03-04T06:28:46.092Z,-2.75
2018-03-04T06:29:51.303Z,-2.75
2018-03-04T06:30:57.432Z,-2.74
2018-03-04T06:32:03.071Z,-2.77
2018-03-04T06:33:09.043Z,-2.82
2018-03-04T06:34:15.463Z,-2.81
2018-03-04T06:35:20.679Z,-2.83
2018-03-04T06:36:26.029Z,-2.81
2018-03-04T06:37:31.830Z,-2.82
2018-03-04T06:38:37.139Z,-2.74
2018-03-04T06:39:42.572Z,-2.64
2018-03-04T06:40:47.529Z,-2.54
2018-03-04T06:41:52.795Z,-2.50
2018-03-04T06:42:58.263Z,-2.56
2018-03-04T06:44:02.958Z,-2.61
2018-03-04T06:45:08.420Z,-2.59
2018-03-04T06:46:14.243Z,-2.59
2018-03-04T06:47:19.313Z,-2.62
2018-03-04T06:48:24.591Z,-2.60
2018-03-04T06:49:30.006Z,-2.61
2018-03-04T06:50:35.813Z,-2.60
2018-03-04T06:51:42.116Z,-2.62
2018-03-04T06:52:46.941Z,-2.65
2018-03-04T06:53:52.214Z,-2.65
2018-03-04T06:54:57.322Z,-2.63
2018-03-04T06:56:02.734Z,-2.65
2018-03-04T06:57:08.723Z,-2.59
2018-03-04T06:58:13.839Z,-2.66
2018-03-04T06:59:18.885Z,-2.67
2018-03-04T07:00:24.203Z,-2.61
2018-03-04T07:01:29.707Z,-2.58
2018-03-04T07:02:35.206Z,-2.54
2018-03-04T07:03:41.937Z,-2.49
2018-03-04T07:04:46.950Z,-2.57
2018-03-04T07:05:52.636Z,-2.59
2018-03-04T07:06:57.956Z,-2.55
2018-03-04T07:08:03.076Z,-2.46
2018-03-04T07:09:08.303Z,-2.43
2018-03-04T07:10:14.700Z,-2.33
2018-03-04T07:11:20.020Z,-2.25
2018-03-04T07:12:25.282Z,-2.21
2018-03-04T07:13:30.381Z,-2.12
2018-03-04T07:14:35.395Z,-2.02
2018-03-04T07:15:41.282Z,-2.03
2018-03-04T07:16:46.678Z,-2.08
2018-03-04T07:17:51.734Z,-2.17
2018-03-04T07:18:57.087Z,-2.26
2018-03-04T07:20:02.156Z,-2.22
2018-03-04T07:21:08.145Z,-2.16
2018-03-04T07:22:13.292Z,-2.18
2018-03-04T07:23:18.724Z,-2.22
2018-03-04T07:24:23.881Z,-2.19
2018-03-04T07:25:29.375Z,-2.20
2018-03-04T07:26:34.579Z,-2.24
2018-03-04T07:27:40.512Z,-2.26
2018-03-04T07:28:45.492Z,-2.24
2018-03-04T07:29:50.732Z,-2.22
2018-03-04T07:30:56.109Z,-2.14
2018-03-04T07:32:00.994Z,-2.07
2018-03-04T07:33:06.028Z,-2.00
2018-03-04T07:34:11.146Z,-1.89
2018-03-04T07:35:19.480Z,-1.84
2018-03-04T07:36:38.219Z,-1.83
2018-03-04T07:37:43.786Z,-1.86
2018-03-04T07:38:49.512Z,-2.04
2018-03-04T07:39:54.479Z,-2.07
2018-03-04T07:40:59.407Z,-2.07
2018-03-04T07:42:05.772Z,-2.10
2018-03-04T07:43:12.415Z,-2.05
2018-03-04T07:44:17.597Z,-2.06
2018-03-04T07:45:23.326Z,-2.09
2018-03-04T07:46:28.458Z,-2.14
2018-03-04T07:47:33.521Z,-2.15
2018-03-04T07:48:38.477Z,-2.15
2018-03-04T07:49:43.535Z,-2.17
2018-03-04T07:50:48.595Z,-2.12
2018-03-04T07:51:53.991Z,-2.08
2018-03-04T07:52:59.172Z,-2.05
2018-03-04T07:54:05.075Z,-2.04
2018-03-04T07:55:10.059Z,-2.10
2018-03-04T07:56:16.028Z,-2.08
2018-03-04T07:57:20.980Z,-2.00
2018-03-04T07:58:25.737Z,-2.00
2018-03-04T07:59:30.965Z,-1.97
2018-03-04T08:00:37.007Z,-1.89
2018-03-04T08:01:42.169Z,-1.84
2018-03-04T08:02:47.749Z,-1.86
2018-03-04T08:03:52.679Z,-1.86
2018-03-04T08:04:58.368Z,-1.83
2018-03-04T08:06:03.520Z,-1.87
2018-03-04T08:07:08.915Z,-1.92
2018-03-04T08:08:14.627Z,-1.91
2018-03-04T08:09:19.477Z,-1.85
2018-03-04T08:10:24.606Z,-1.84
2018-03-04T08:11:29.555Z,-1.75
2018-03-04T08:12:34.476Z,-1.68
2018-03-04T08:13:39.745Z,-1.63
2018-03-04T08:14:44.619Z,-1.59
2018-03-04T08:15:49.702Z,-1.59
2018-03-04T08:16:54.630Z,-1.54
2018-03-04T08:17:59.770Z,-1.49
2018-03-04T08:19:05.229Z,-1.42
2018-03-04T08:20:10.579Z,-1.45
2018-03-04T08:21:16.312Z,-1.44
2018-03-04T08:22:21.133Z,-1.34
2018-03-04T08:23:25.908Z,-1.25
2018-03-04T08:24:39.425Z,-1.13
2018-03-04T08:25:44.491Z,-1.11
2018-03-04T08:28:57.881Z,-1.14
2018-03-04T08:30:04.168Z,-1.13
2018-03-04T08:31:09.898Z,-1.08
2018-03-04T08:32:15.170Z,-1.04
2018-03-04T08:33:20.695Z,-0.99
2018-03-04T08:34:25.615Z,-1.03
2018-03-04T08:35:30.519Z,-1.09
2018-03-04T08:36:35.723Z,-1.09
2018-03-04T08:37:40.657Z,-1.05
2018-03-04T08:38:45.832Z,-1.06
2018-03-04T08:39:50.720Z,-1.06
2018-03-04T08:40:55.550Z,-1.08
2018-03-04T08:42:00.568Z,-0.95
2018-03-04T08:43:05.494Z,-0.79
2018-03-04T08:44:10.658Z,-0.77
2018-03-04T08:45:18.287Z,-0.77
2018-03-04T08:46:23.038Z,-0.67
2018-03-04T08:47:27.761Z,-0.55
2018-03-04T08:48:32.715Z,-0.68
2018-03-04T08:49:37.530Z,-0.68
2018-03-04T08:50:42.397Z,-0.71
2018-03-04T08:51:47.631Z,-0.74
2018-03-04T08:52:52.381Z,-0.61
2018-03-04T08:53:57.243Z,-0.56
2018-03-04T08:55:02.320Z,-0.48
2018-03-04T08:56:07.259Z,-0.57
2018-03-04T08:57:12.219Z,-0.59
2018-03-04T08:58:17.445Z,-0.62
2018-03-04T08:59:23.198Z,-0.59
2018-03-04T09:00:28.139Z,-0.59
2018-03-04T09:01:33.235Z,-0.54
2018-03-04T09:02:38.024Z,-0.53
2018-03-04T09:03:42.824Z,-0.40
2018-03-04T09:04:48.836Z,-0.28
2018-03-04T09:05:53.662Z,-0.26
2018-03-04T09:06:58.355Z,-0.26
2018-03-04T09:08:03.533Z,-0.21
2018-03-04T09:09:08.348Z,-0.10
2018-03-04T09:10:13.450Z,0.19
2018-03-04T09:11:18.426Z,0.25
2018-03-04T09:12:23.430Z,0.26
2018-03-04T09:13:28.207Z,0.37
2018-03-04T09:14:32.924Z,0.29
2018-03-04T09:15:38.174Z,0.15
2018-03-04T09:16:43.295Z,0.09
2018-03-04T09:17:48.052Z,0.13
2018-03-04T09:18:53.685Z,0.06
2018-03-04T09:19:59.268Z,0.21
2018-03-04T09:21:04.519Z,0.31
2018-03-04T09:22:09.470Z,0.38
2018-03-04T09:23:15.802Z,0.55
2018-03-04T09:24:21.508Z,0.48
2018-03-04T09:25:26.266Z,0.37
2018-03-04T09:26:30.981Z,0.41
2018-03-04T09:27:36.148Z,0.43
2018-03-04T09:28:40.838Z,0.61
2018-03-04T09:29:45.984Z,0.86
2018-03-04T09:30:51.470Z,0.76
2018-03-04T09:31:56.130Z,0.70
2018-03-04T09:33:01.180Z,0.82
2018-03-04T09:34:05.977Z,0.98
2018-03-04T09:35:11.196Z,1.07
2018-03-04T09:36:16.054Z,0.84
2018-03-04T09:37:20.814Z,0.90
2018-03-04T09:38:25.756Z,0.93
2018-03-04T09:39:30.541Z,1.00
2018-03-04T09:40:35.663Z,0.90
2018-03-04T09:41:40.447Z,0.95
2018-03-04T09:42:45.291Z,1.01
2018-03-04T09:43:50.205Z,1.07
2018-03-04T09:44:55.105Z,1.04
2018-03-04T09:46:00.166Z,0.89
2018-03-04T09:47:05.323Z,0.90
2018-03-04T09:48:10.223Z,0.99
2018-03-04T09:49:15.360Z,0.95
2018-03-04T09:50:21.207Z,0.93
2018-03-04T09:51:26.025Z,0.98
2018-03-04T09:52:30.923Z,0.92
2018-03-04T09:53:35.842Z,0.89
2018-03-04T09:54:40.719Z,0.72
2018-03-04T09:55:45.446Z,0.85
2018-03-04T09:56:50.472Z,0.69
2018-03-04T09:57:55.312Z,0.68
2018-03-04T09:59:00.885Z,0.67
2018-03-04T10:00:07.680Z,0.73
2018-03-04T10:01:12.477Z,0.76
2018-03-04T10:02:17.274Z,0.75
2018-03-04T10:03:22.020Z,0.72
2018-03-04T10:04:26.954Z,0.73
2018-03-04T10:05:31.639Z,0.86
2018-03-04T10:06:36.402Z,0.99
2018-03-04T10:07:41.042Z,1.03
2018-03-04T10:08:45.870Z,1.02
2018-03-04T10:09:51.198Z,1.14
2018-03-04T10:10:55.878Z,1.35
2018-03-04T10:12:01.093Z,1.38
2018-03-04T10:13:06.099Z,1.45
2018-03-04T10:14:10.839Z,1.29
2018-03-04T10:15:17.491Z,1.24
2018-03-04T10:16:22.246Z,1.35
2018-03-04T10:17:27.691Z,1.18
2018-03-04T10:18:32.779Z,1.09
2018-03-04T10:19:37.636Z,1.09
2018-03-04T10:20:42.522Z,1.16
2018-03-04T10:21:47.377Z,1.23
2018-03-04T10:22:52.263Z,1.33
2018-03-04T10:23:57.051Z,1.47
2018-03-04T10:25:02.355Z,1.54
2018-03-04T10:26:07.287Z,1.42
2018-03-04T10:27:12.037Z,1.26
2018-03-04T10:28:16.875Z,1.25
2018-03-04T10:29:22.307Z,1.39
2018-03-04T10:30:27.418Z,1.43
2018-03-04T10:31:32.220Z,1.43
2018-03-04T10:32:36.988Z,1.34
2018-03-04T10:33:41.816Z,1.44
2018-03-04T10:34:46.644Z,1.39
2018-03-04T10:35:52.477Z,1.31
2018-03-04T10:36:57.260Z,1.43
2018-03-04T10:38:02.424Z,1.79
2018-03-04T10:39:07.283Z,1.97
2018-03-04T10:40:12.277Z,1.93
2018-03-04T10:41:17.010Z,2.21
2018-03-04T10:42:21.781Z,2.04
2018-03-04T10:43:27.349Z,1.86
2018-03-04T10:44:32.349Z,1.86
2018-03-04T10:45:37.368Z,1.83
2018-03-04T10:46:42.406Z,1.71
2018-03-04T10:47:47.654Z,1.57
2018-03-04T10:48:52.991Z,1.61
2018-03-04T10:49:58.691Z,1.59
2018-03-04T10:51:03.681Z,1.68
2018-03-04T10:52:08.422Z,1.74
2018-03-04T10:53:13.118Z,1.89
2018-03-04T10:54:17.732Z,1.76
2018-03-04T10:55:22.466Z,1.73
2018-03-04T10:56:27.308Z,1.72
2018-03-04T10:57:32.399Z,1.68
2018-03-04T10:58:37.149Z,1.80
2018-03-04T10:59:42.276Z,2.15
2018-03-04T11:00:47.849Z,2.37
2018-03-04T11:01:54.556Z,2.53
2018-03-04T11:03:00.137Z,2.32
2018-03-04T11:04:05.051Z,2.58
2018-03-04T11:05:10.927Z,2.69
2018-03-04T11:06:15.601Z,2.75
2018-03-04T11:07:20.469Z,2.62
2018-03-04T11:08:26.127Z,2.42
2018-03-04T11:09:31.443Z,2.40
2018-03-04T11:10:36.468Z,2.44
2018-03-04T11:11:41.252Z,2.58
2018-03-04T11:12:45.983Z,2.68
2018-03-04T11:13:50.938Z,2.62
2018-03-04T11:14:56.360Z,2.64
2018-03-04T11:16:01.921Z,2.67
2018-03-04T11:17:06.725Z,2.74
2018-03-04T11:18:11.566Z,2.58
2018-03-04T11:19:16.623Z,2.36
2018-03-04T11:20:21.407Z,2.32
2018-03-04T11:21:26.252Z,2.44
2018-03-04T11:22:31.877Z,2.50
2018-03-04T11:23:36.731Z,2.54
2018-03-04T11:24:41.709Z,2.40
2018-03-04T11:25:46.613Z,2.30
2018-03-04T11:26:51.375Z,2.63
2018-03-04T11:27:55.964Z,2.99
2018-03-04T11:29:01.014Z,3.10
2018-03-04T11:30:07.551Z,3.29
2018-03-04T11:31:12.426Z,3.63
2018-03-04T11:32:17.209Z,3.59
2018-03-04T11:33:22.348Z,3.59
2018-03-04T11:34:37.117Z,3.36
2018-03-04T11:35:43.821Z,3.12
2018-03-04T11:36:48.773Z,3.16
2018-03-04T11:37:53.614Z,3.14
2018-03-04T11:38:58.672Z,3.31
2018-03-04T11:40:04.063Z,3.32
2018-03-04T11:41:09.783Z,3.32
2018-03-04T11:42:15.177Z,3.40
2018-03-04T11:43:20.397Z,3.26
2018-03-04T11:44:25.490Z,3.24
2018-03-04T11:45:33.379Z,3.26
2018-03-04T11:46:38.408Z,3.33
2018-03-04T11:47:43.398Z,3.29
2018-03-04T11:48:48.186Z,3.50
2018-03-04T11:49:54.147Z,3.73
2018-03-04T11:50:59.106Z,3.58
2018-03-04T11:52:04.144Z,3.90
2018-03-04T11:53:09.368Z,4.06
2018-03-04T11:54:14.527Z,4.39
2018-03-04T11:55:19.780Z,4.54
2018-03-04T11:56:24.826Z,4.45
2018-03-04T11:57:30.862Z,4.22
2018-03-04T11:58:35.756Z,4.41
2018-03-04T11:59:40.885Z,4.70
2018-03-04T12:00:46.602Z,4.91
2018-03-04T12:01:51.504Z,5.25
2018-03-04T12:02:57.637Z,4.91
2018-03-04T12:04:02.663Z,5.07
2018-03-04T12:05:07.429Z,5.49
2018-03-04T12:06:12.307Z,5.30
2018-03-04T12:07:18.574Z,5.18
2018-03-04T12:08:23.617Z,5.28
2018-03-04T12:09:28.613Z,4.97
2018-03-04T12:10:33.565Z,5.04
2018-03-04T12:11:38.595Z,5.21
2018-03-04T12:12:44.006Z,5.08
2018-03-04T12:13:48.915Z,4.92
2018-03-04T12:14:53.956Z,4.75
2018-03-04T12:15:59.912Z,4.63
2018-03-04T12:17:04.852Z,4.53
2018-03-04T12:18:09.735Z,4.65
2018-03-04T12:19:15.074Z,4.58
2018-03-04T12:20:20.354Z,4.58
2018-03-04T12:21:25.256Z,4.70
2018-03-04T12:22:31.149Z,4.93
2018-03-04T12:23:36.232Z,4.71
2018-03-04T12:24:42.657Z,4.61
2018-03-04T12:25:47.772Z,4.62
2018-03-04T12:26:53.344Z,4.53
2018-03-04T12:27:58.909Z,4.58
2018-03-04T12:29:04.182Z,4.91
2018-03-04T12:30:09.340Z,5.29
2018-03-04T12:31:15.268Z,5.55
2018-03-04T12:32:20.372Z,5.51
2018-03-04T12:33:26.161Z,5.23
2018-03-04T12:34:32.089Z,4.97
2018-03-04T12:35:38.570Z,4.81
2018-03-04T12:36:45.394Z,4.84
2018-03-04T12:37:50.644Z,4.68
2018-03-04T12:38:56.498Z,4.92
2018-03-04T12:40:02.160Z,5.39
2018-03-04T12:41:07.099Z,5.74
2018-03-04T12:42:12.176Z,5.90
2018-03-04T12:43:17.559Z,5.74
2018-03-04T12:44:22.960Z,5.82
2018-03-04T12:45:28.186Z,5.55
2018-03-04T12:46:34.466Z,5.39
2018-03-04T12:47:40.417Z,5.30
2018-03-04T12:48:45.303Z,5.30
2018-03-04T12:49:50.831Z,5.21
2018-03-04T12:50:56.117Z,5.09
2018-03-04T12:52:01.851Z,5.10
2018-03-04T12:53:06.967Z,4.95
2018-03-04T12:54:12.294Z,5.18
2018-03-04T12:55:17.446Z,5.43
2018-03-04T12:56:22.803Z,5.29
2018-03-04T12:57:27.838Z,5.00
2018-03-04T12:58:35.013Z,4.90
2018-03-04T12:59:42.462Z,5.15
2018-03-04T13:00:47.798Z,5.49
2018-03-04T13:01:53.823Z,5.31
2018-03-04T13:02:59.588Z,5.45
2018-03-04T13:04:05.032Z,5.67
2018-03-04T13:05:10.260Z,5.66
2018-03-04T13:06:15.030Z,5.47
2018-03-04T13:07:20.182Z,5.78
2018-03-04T13:08:25.454Z,5.91
2018-03-04T13:09:30.616Z,6.12
2018-03-04T13:10:35.953Z,6.16
2018-03-04T13:11:41.957Z,6.14
2018-03-04T13:12:47.117Z,6.05
2018-03-04T13:13:52.757Z,5.92
2018-03-04T13:14:57.851Z,6.23
2018-03-04T13:16:03.661Z,6.42
2018-03-04T13:17:08.770Z,6.70
2018-03-04T13:18:14.290Z,6.76
2018-03-04T13:19:19.310Z,6.91
2018-03-04T13:20:24.797Z,6.53
2018-03-04T13:21:30.201Z,6.03
2018-03-04T13:22:34.984Z,5.93
2018-03-04T13:23:39.885Z,5.96
2018-03-04T13:24:45.150Z,5.90
2018-03-04T13:25:51.446Z,5.91
2018-03-04T13:26:56.690Z,6.12
2018-03-04T13:28:02.379Z,5.97
2018-03-04T13:29:07.073Z,5.89
2018-03-04T13:30:13.813Z,6.01
2018-03-04T13:31:19.959Z,6.24
2018-03-04T13:32:25.244Z,6.34
2018-03-04T13:33:30.915Z,6.20
2018-03-04T13:34:36.352Z,6.20
2018-03-04T13:35:41.605Z,5.77
2018-03-04T13:36:46.647Z,5.63
2018-03-04T13:37:51.540Z,5.63
2018-03-04T13:38:56.646Z,5.67
2018-03-04T13:40:01.885Z,5.66
2018-03-04T13:41:07.082Z,5.64
2018-03-04T13:42:13.065Z,5.73
2018-03-04T13:43:19.804Z,5.60
2018-03-04T13:44:25.906Z,5.42
2018-03-04T13:45:31.058Z,5.28
2018-03-04T13:46:38.461Z,5.37
2018-03-04T13:47:43.523Z,5.55
2018-03-04T13:48:49.121Z,5.63
2018-03-04T13:49:54.975Z,5.55
2018-03-04T13:51:00.573Z,5.62
2018-03-04T13:52:05.372Z,5.55
2018-03-04T13:53:10.503Z,5.50
2018-03-04T13:54:15.453Z,5.62
2018-03-04T13:55:20.775Z,5.70
2018-03-04T13:56:25.737Z,5.65
2018-03-04T13:57:31.440Z,5.75
2018-03-04T13:58:37.101Z,5.85
2018-03-04T13:59:42.281Z,5.98
2018-03-04T14:00:48.042Z,6.04
2018-03-04T14:01:53.524Z,5.94
2018-03-04T14:02:58.666Z,6.19
2018-03-04T14:04:04.050Z,6.06
2018-03-04T14:05:10.332Z,6.10
2018-03-04T14:06:16.765Z,6.00
2018-03-04T14:07:22.254Z,6.20
2018-03-04T14:08:27.918Z,6.11
2018-03-04T14:09:34.466Z,6.11
2018-03-04T14:10:39.878Z,6.12
2018-03-04T14:11:45.938Z,5.91
2018-03-04T14:12:50.900Z,5.60